RO-0026 weather

Salonti Airstrip
Alba, Romania

Public forecast

Using degrees Celsius for public forecast. Weather courtesy of forecast.io.

METAR (pilot weather report)

Closest report is Sibiu International Airport, 16.7 nm (30.9 km) SE. Retrieved 2019/08/17 11:30 UTC (15 minutes ago):

LRSB 171130Z 01006KT 350V050 9999 SCT046 24/08 Q1017 NOSIG

TAF (pilot weather forecast)

Closest forecast is Sibiu International Airport, 16.7 nm (30.9 km) SE. Retrieved 2019/08/17 06:32 UTC (5 hours ago):

TAF LRSB 170500Z 1706/1806 VRB04KT CAVOK TEMPO 1713/1717 SCT045CB PROB30 TEMPO 1802/1806 5000 BR